createdAt,value
2018-01-24T00:00:12.909Z,5.7
2018-01-24T00:05:08.186Z,5.7
2018-01-24T00:10:10.449Z,5.6
2018-01-24T00:15:05.522Z,5.6
2018-01-24T00:20:05.354Z,5.6
2018-01-24T00:25:13.116Z,5.6
2018-01-24T00:30:03.330Z,5.6
2018-01-24T00:35:05.156Z,5.7
2018-01-24T00:40:02.839Z,5.6
2018-01-24T00:45:05.556Z,5.7
2018-01-24T00:50:05.319Z,5.7
2018-01-24T00:55:03.051Z,5.7
2018-01-24T01:00:03.351Z,5.7
2018-01-24T01:05:02.469Z,5.7
2018-01-24T01:10:03.250Z,5.8
2018-01-24T01:15:02.457Z,5.8
2018-01-24T01:20:02.767Z,5.8
2018-01-24T01:25:10.583Z,5.9
2018-01-24T01:30:05.345Z,5.9
2018-01-24T01:35:05.525Z,5.9
2018-01-24T01:40:15.875Z,5.9
2018-01-24T01:45:02.376Z,5.9
2018-01-24T01:50:02.596Z,6
2018-01-24T01:55:02.815Z,6
2018-01-24T02:00:03.039Z,6
2018-01-24T02:05:08.353Z,6.1
2018-01-24T02:10:10.601Z,6.1
2018-01-24T02:15:08.367Z,6.2
2018-01-24T02:20:07.735Z,6.2
2018-01-24T02:25:10.467Z,6.2
2018-01-24T02:30:07.755Z,6.2
2018-01-24T02:35:02.871Z,6.2
2018-01-24T02:40:02.545Z,6.3
2018-01-24T02:45:05.432Z,6.4
2018-01-24T02:50:07.750Z,6.4
2018-01-24T02:55:02.839Z,6.4
2018-01-24T03:00:03.064Z,6.5
2018-01-24T03:05:03.128Z,6.5
2018-01-24T03:10:05.351Z,6.5
2018-01-24T03:15:05.578Z,6.6
2018-01-24T03:20:02.870Z,6.6
2018-01-24T03:25:03.098Z,6.6
2018-01-24T03:30:05.987Z,6.6
2018-01-24T03:35:07.585Z,6.7
2018-01-24T03:40:03.299Z,6.7
2018-01-24T03:45:02.510Z,6.7
2018-01-24T03:50:02.752Z,6.8
2018-01-24T03:55:03.029Z,6.8
2018-01-24T04:00:05.850Z,6.9
2018-01-24T04:05:02.489Z,6.9
2018-01-24T04:10:05.790Z,7.1
2018-01-24T04:15:02.420Z,7
2018-01-24T04:20:05.304Z,7.2
2018-01-24T04:25:05.476Z,7.3
2018-01-24T04:30:02.742Z,7.2
2018-01-24T04:35:20.950Z,7.4
2018-01-24T04:40:10.318Z,7.4
2018-01-24T04:45:02.960Z,7.4
2018-01-24T04:50:03.477Z,7.4
2018-01-24T04:55:05.027Z,7.5
2018-01-24T05:00:05.786Z,7.5
2018-01-24T05:05:02.407Z,7.5
2018-01-24T05:10:08.217Z,7.5
2018-01-24T05:15:08.309Z,7.6
2018-01-24T05:20:05.130Z,7.6
2018-01-24T05:25:07.897Z,7.6
2018-01-24T05:30:03.189Z,7.6
2018-01-24T05:35:03.263Z,7.6
2018-01-24T05:40:05.601Z,7.6
2018-01-24T05:45:03.207Z,7.6
2018-01-24T05:50:02.408Z,7.6
2018-01-24T05:55:10.273Z,7.7
2018-01-24T06:00:05.008Z,7.7
2018-01-24T06:05:05.205Z,7.7
2018-01-24T06:10:07.987Z,7.7
2018-01-24T06:15:03.139Z,7.7
2018-01-24T06:20:07.514Z,7.7
2018-01-24T06:25:02.678Z,7.7
2018-01-24T06:30:07.715Z,7.7
2018-01-24T06:35:02.896Z,7.7
2018-01-24T06:40:05.166Z,7.8
2018-01-24T06:45:08.098Z,7.8
2018-01-24T06:50:08.622Z,7.9
2018-01-24T06:55:10.082Z,7.9
2018-01-24T07:00:05.828Z,8
2018-01-24T07:05:02.500Z,8
2018-01-24T07:10:08.275Z,8.1
2018-01-24T07:15:10.044Z,8.2
2018-01-24T07:20:04.925Z,8.2
2018-01-24T07:25:02.668Z,8.2
2018-01-24T07:30:07.964Z,8.3
2018-01-24T07:35:03.098Z,8.3
2018-01-24T07:40:05.348Z,8.3
2018-01-24T07:45:05.615Z,8.2
2018-01-24T07:50:02.890Z,8.2
2018-01-24T07:55:03.151Z,8.2
2018-01-24T08:00:07.425Z,8.1
2018-01-24T08:05:07.752Z,8.2
2018-01-24T08:10:04.966Z,8.2
2018-01-24T08:15:10.257Z,8.2
2018-01-24T08:20:10.234Z,8.2
2018-01-24T08:25:05.345Z,8.2
2018-01-24T08:30:05.113Z,8.3
2018-01-24T08:35:02.789Z,8.2
2018-01-24T08:40:20.222Z,8.4
2018-01-24T08:45:02.725Z,8.4
2018-01-24T08:50:05.550Z,8.5
2018-01-24T08:55:05.718Z,8.5
2018-01-24T09:00:02.978Z,8.5
2018-01-24T09:05:08.345Z,8.6
2018-01-24T09:10:03.136Z,8.6
2018-01-24T09:15:05.923Z,8.9
2018-01-24T09:20:18.466Z,8.9
2018-01-24T09:25:02.479Z,8.9
2018-01-24T09:30:20.556Z,9.2
2018-01-24T09:35:03.351Z,9.2
2018-01-24T09:40:05.618Z,9.5
2018-01-24T09:45:04.884Z,9.6
2018-01-24T09:50:08.216Z,9.8
2018-01-24T09:55:05.850Z,9.9
2018-01-24T10:00:08.181Z,10
2018-01-24T10:05:02.389Z,10
2018-01-24T10:10:03.131Z,10.1
2018-01-24T10:15:02.413Z,10.2
2018-01-24T10:20:12.852Z,10.2
2018-01-24T10:25:03.026Z,10.3
2018-01-24T10:30:03.345Z,10.4
2018-01-24T10:35:02.542Z,10.4
2018-01-24T10:40:05.864Z,10.6
2018-01-24T10:45:02.571Z,10.6
2018-01-24T10:50:02.788Z,10.7
2018-01-24T10:55:02.979Z,10.9
2018-01-24T11:00:03.303Z,10.9
2018-01-24T11:05:02.379Z,11
2018-01-24T11:10:05.638Z,11.1
2018-01-24T11:15:02.380Z,11
2018-01-24T11:20:05.273Z,11.1
2018-01-24T11:25:13.182Z,11.1
2018-01-24T11:30:05.097Z,11
2018-01-24T11:35:17.958Z,10.9
2018-01-24T11:40:05.217Z,11
2018-01-24T11:45:03.001Z,10.9
2018-01-24T11:50:03.241Z,11
2018-01-24T11:55:02.440Z,11
2018-01-24T12:00:02.805Z,11
2018-01-24T12:05:03.026Z,11
2018-01-24T12:10:05.337Z,11.1
2018-01-24T12:15:08.115Z,11
2018-01-24T12:20:04.968Z,11.1
2018-01-24T12:25:05.227Z,11.1
2018-01-24T12:30:02.478Z,11
2018-01-24T12:35:02.811Z,11.1
2018-01-24T12:40:05.110Z,11.2
2018-01-24T12:45:02.879Z,11.1
2018-01-24T12:50:05.677Z,11.2
2018-01-24T12:55:07.463Z,11.2
2018-01-24T13:00:07.722Z,11.2
2018-01-24T13:05:05.450Z,11.2
2018-01-24T13:10:05.711Z,11.2
2018-01-24T13:15:02.429Z,11.2
2018-01-24T13:20:07.891Z,11.2
2018-01-24T13:25:05.518Z,11.2
2018-01-24T13:30:10.741Z,11.2
2018-01-24T13:35:23.582Z,11.1
2018-01-24T13:40:05.190Z,11.2
2018-01-24T13:45:07.899Z,11.1
2018-01-24T13:50:07.617Z,11.1
2018-01-24T13:55:02.755Z,11.1
2018-01-24T14:00:05.908Z,11.1
2018-01-24T14:05:02.572Z,11.1
2018-01-24T14:10:02.630Z,11.1
2018-01-24T14:15:07.968Z,11.1
2018-01-24T14:20:05.857Z,11.1
2018-01-24T14:25:02.655Z,11.1
2018-01-24T14:30:15.531Z,11.1
2018-01-24T14:35:05.607Z,11.1
2018-01-24T14:40:02.446Z,11.1
2018-01-24T14:45:02.708Z,11.1
2018-01-24T14:50:02.962Z,11.1
2018-01-24T14:55:05.806Z,11
2018-01-24T15:00:05.588Z,11
2018-01-24T15:05:04.917Z,10.9
2018-01-24T15:10:05.245Z,10.8
2018-01-24T15:15:05.659Z,10.7
2018-01-24T15:20:02.968Z,10.7
2018-01-24T15:25:08.414Z,10.6
2018-01-24T15:30:02.723Z,10.6
2018-01-24T15:35:03.020Z,10.5
2018-01-24T15:40:07.822Z,10.4
2018-01-24T15:45:03.074Z,10.4
2018-01-24T15:50:05.970Z,10.3
2018-01-24T15:55:02.556Z,10.3
2018-01-24T16:00:02.860Z,10.2
2018-01-24T16:05:03.140Z,10.1
2018-01-24T16:10:12.920Z,10
2018-01-24T16:15:03.096Z,10
2018-01-24T16:20:02.471Z,10.1
2018-01-24T16:25:02.725Z,10
2018-01-24T16:30:03.323Z,10
2018-01-24T16:35:02.503Z,9.9
2018-01-24T16:40:03.239Z,9.9
2018-01-24T16:45:10.056Z,9.9
2018-01-24T16:50:05.836Z,9.9
2018-01-24T16:55:07.678Z,9.9
2018-01-24T17:00:13.070Z,9.9
2018-01-24T17:05:05.735Z,9.9
2018-01-24T17:10:05.183Z,9.9
2018-01-24T17:15:05.264Z,9.9
2018-01-24T17:20:05.214Z,9.8
2018-01-24T17:25:02.908Z,9.8
2018-01-24T17:30:08.288Z,9.8
2018-01-24T17:35:02.431Z,9.8
2018-01-24T17:40:05.687Z,9.7
2018-01-24T17:45:07.463Z,9.6
2018-01-24T17:50:15.433Z,9.6
2018-01-24T17:55:02.977Z,9.6
2018-01-24T18:00:10.861Z,9.6
2018-01-24T18:05:02.478Z,9.6
2018-01-24T18:10:03.228Z,9.6
2018-01-24T18:15:15.618Z,9.6
2018-01-24T18:20:03.258Z,9.6
2018-01-24T18:25:03.158Z,9.6
2018-01-24T18:30:07.540Z,9.5
2018-01-24T18:35:15.338Z,9.5
2018-01-24T18:40:03.047Z,9.5
2018-01-24T18:45:03.311Z,9.5
2018-01-24T18:50:02.551Z,9.5
2018-01-24T18:55:05.422Z,9.7
2018-01-24T19:00:05.171Z,9.7
2018-01-24T19:05:02.889Z,9.7
2018-01-24T19:10:10.285Z,9.8
2018-01-24T19:15:10.528Z,9.8
2018-01-24T19:20:02.933Z,9.8
2018-01-24T19:25:10.783Z,9.8
2018-01-24T19:30:03.052Z,9.8
2018-01-24T19:35:03.199Z,9.9
2018-01-24T19:40:07.996Z,9.9
2018-01-24T19:45:08.187Z,9.9
2018-01-24T19:50:10.042Z,9.9
2018-01-24T19:55:05.227Z,9.9
2018-01-24T20:00:05.043Z,10
2018-01-24T20:05:02.754Z,9.9
2018-01-24T20:10:02.492Z,10
2018-01-24T20:15:05.267Z,10
2018-01-24T20:20:07.690Z,10
2018-01-24T20:25:02.979Z,10
2018-01-24T20:30:05.760Z,10.1
2018-01-24T20:35:04.949Z,10.1
2018-01-24T20:40:02.692Z,10.1
2018-01-24T20:45:05.509Z,10.2
2018-01-24T20:50:02.821Z,10.2
2018-01-24T20:55:05.589Z,10.3
2018-01-24T21:00:05.341Z,10.3
2018-01-24T21:05:03.041Z,10.3
2018-01-24T21:10:05.310Z,10.3
2018-01-24T21:15:08.064Z,10.3
2018-01-24T21:20:02.398Z,10.3
2018-01-24T21:25:02.603Z,10.4
2018-01-24T21:30:05.419Z,10.3
2018-01-24T21:35:03.210Z,10.3
2018-01-24T21:40:02.948Z,10.3
2018-01-24T21:45:03.279Z,10.4
2018-01-24T21:50:05.060Z,10.3
2018-01-24T21:55:05.335Z,10.3
2018-01-24T22:00:17.811Z,10.3
2018-01-24T22:05:17.989Z,10.2
2018-01-24T22:10:05.206Z,10.2
2018-01-24T22:15:03.014Z,10.2
2018-01-24T22:20:08.465Z,10.1
2018-01-24T22:25:17.800Z,10.1
2018-01-24T22:30:08.134Z,10
2018-01-24T22:35:03.323Z,10.1
2018-01-24T22:40:03.108Z,10
2018-01-24T22:45:08.423Z,9.9
2018-01-24T22:50:02.655Z,9.9
2018-01-24T22:55:07.988Z,9.8
2018-01-24T23:00:03.381Z,9.8
2018-01-24T23:05:02.517Z,9.8
2018-01-24T23:10:05.790Z,9.7
2018-01-24T23:15:02.528Z,9.7
2018-01-24T23:20:02.891Z,9.7
2018-01-24T23:25:05.626Z,9.6
2018-01-24T23:30:02.867Z,9.6
2018-01-24T23:35:05.619Z,9.5
2018-01-24T23:40:04.927Z,9.5
2018-01-24T23:45:05.103Z,9.5
2018-01-24T23:50:09.992Z,9.4
2018-01-24T23:55:05.188Z,9.4
